Time;durP1;ratioP1;P1;durP2;ratioP2;P2;SDS_P1;SDS_P2;PMS_P1;PMS_P2;Temp;Humidity;BMP_temperature;BMP_pressure;BME280_temperature;BME280_humidity;BME280_pressure;Samples;Min_cycle;Max_cycle;Signal;HPM_P1;HPM_P2
2022/10/13 00:04:35;;;;;;;3.23;2.57;;;;;;;18.54;65.11;97159.19;10562017;28;20299;-31
2022/10/13 00:09:35;;;;;;;2.23;2.03;;;;;;;18.52;64.98;97158.34;10555365;28;20028;-31
2022/10/13 00:14:36;;;;;;;2.90;2.20;;;;;;;18.51;64.78;97159.19;10565114;28;20051;-31
2022/10/13 00:19:36;;;;;;;3.13;2.07;;;;;;;18.48;64.61;97149.88;10554409;28;20031;-31
2022/10/13 00:24:37;;;;;;;3.13;2.40;;;;;;;18.49;64.71;97158.34;10557063;28;20646;-31
2022/10/13 00:29:38;;;;;;;2.90;2.30;;;;;;;18.49;64.76;97158.34;10560808;28;20413;-31
2022/10/13 00:34:38;;;;;;;2.50;2.23;;;;;;;18.47;64.88;97158.31;10561075;28;20031;-30
2022/10/13 00:39:39;;;;;;;3.42;2.22;;;;;;;18.45;65.14;97154.06;10565761;28;20085;-31
2022/10/13 00:45:00;;;;;;;2.60;2.17;;;;;;;18.47;64.59;97155.78;10565251;28;20118;-32
2022/10/13 00:50:01;;;;;;;2.53;2.33;;;;;;;18.49;65.47;97159.16;10558215;28;20290;-31
2022/10/13 00:55:04;;;;;;;3.35;2.88;;;;;;;18.54;66.15;97157.53;10570765;28;20031;-32
2022/10/13 01:00:06;;;;;;;3.15;2.50;;;;;;;18.55;65.77;97148.22;10574327;28;20069;-30
2022/10/13 01:05:07;;;;;;;3.45;2.50;;;;;;;18.54;65.32;97142.31;10571072;28;20084;-33
2022/10/13 01:10:07;;;;;;;3.50;2.30;;;;;;;18.53;64.89;97148.22;10565326;28;20115;-31
2022/10/13 01:15:32;;;;;;;2.78;2.38;;;;;;;18.50;64.69;97137.22;10568401;28;20067;-30
2022/10/13 01:21:01;;;;;;;2.58;2.17;;;;;;;18.51;65.00;97136.38;10566688;28;20031;-30
2022/10/13 01:26:29;;;;;;;2.88;2.28;;;;;;;18.49;64.56;97140.59;10569435;28;20031;-30
2022/10/13 01:31:41;;;;;;;2.53;2.28;;;;;;;18.48;64.83;97137.19;10567473;28;20024;-31
2022/10/13 01:37:15;;;;;;;2.17;1.95;;;;;;;18.42;64.58;97121.09;10555181;28;20028;-31
2022/10/13 01:42:24;;;;;;;2.08;1.90;;;;;;;18.47;64.73;97135.50;10567921;28;20028;-30
2022/10/13 01:47:27;;;;;;;2.45;1.90;;;;;;;18.42;64.58;97121.09;10573269;28;20028;-30
2022/10/13 01:52:34;;;;;;;2.00;1.80;;;;;;;18.46;64.32;97128.75;10565717;28;20130;-31
2022/10/13 01:57:38;;;;;;;2.45;2.25;;;;;;;18.48;65.88;97133.78;10566483;28;20028;-31
2022/10/13 02:02:45;;;;;;;2.55;2.25;;;;;;;18.55;65.56;97144.00;10568657;28;20024;-30
2022/10/13 02:07:54;;;;;;;2.45;2.25;;;;;;;18.50;65.42;97139.75;10558584;28;20031;-31
2022/10/13 02:13:05;;;;;;;2.47;2.28;;;;;;;18.52;64.67;97138.06;10569292;28;20040;-30
2022/10/13 02:18:08;;;;;;;1.83;1.70;;;;;;;18.49;64.63;97138.06;10567563;28;20027;-29
2022/10/13 02:23:16;;;;;;;2.70;2.30;;;;;;;18.49;64.54;97135.53;10561967;28;20085;-30
2022/10/13 02:28:17;;;;;;;3.92;1.98;;;;;;;18.43;64.55;97125.34;10560954;28;20032;-30
2022/10/13 02:33:18;;;;;;;3.13;2.15;;;;;;;18.45;64.36;97131.25;10564402;28;20089;-31
2022/10/13 02:38:19;;;;;;;2.08;1.90;;;;;;;18.46;64.36;97138.00;10566050;28;20023;-30
2022/10/13 02:43:19;;;;;;;2.20;2.00;;;;;;;18.45;64.65;97129.59;10563148;28;20378;-30
2022/10/13 02:48:19;;;;;;;2.65;2.45;;;;;;;18.45;64.35;97131.25;10567293;28;20031;-31
2022/10/13 02:53:20;;;;;;;2.08;1.88;;;;;;;18.44;64.35;97120.28;10562754;28;20081;-30
2022/10/13 02:58:20;;;;;;;2.60;2.00;;;;;;;18.45;65.10;97132.13;10559051;28;20027;-30
2022/10/13 03:03:21;;;;;;;2.63;2.20;;;;;;;18.38;65.75;97115.16;10564989;28;20031;-30
2022/10/13 03:08:22;;;;;;;2.70;2.28;;;;;;;18.49;65.46;97113.53;10561037;28;20369;-30
2022/10/13 03:13:23;;;;;;;1.80;1.70;;;;;;;18.50;64.47;97099.19;10561420;28;20119;-30
2022/10/13 03:18:23;;;;;;;2.87;2.00;;;;;;;18.46;64.43;97094.91;10561530;28;20421;-30
2022/10/13 03:23:25;;;;;;;2.30;2.10;;;;;;;18.48;64.50;97089.03;10558769;28;20051;-31
2022/10/13 03:28:25;;;;;;;2.58;2.38;;;;;;;18.45;64.47;97095.75;10560177;28;20039;-30
2022/10/13 03:33:26;;;;;;;2.45;2.25;;;;;;;18.46;64.34;97105.91;10564524;28;20032;-31
2022/10/13 03:38:32;;;;;;;1.95;1.77;;;;;;;18.46;64.28;97112.66;10564473;28;20084;-31
2022/10/13 03:43:33;;;;;;;3.20;1.90;;;;;;;18.43;64.30;97103.34;10560304;28;20027;-31
2022/10/13 03:48:34;;;;;;;1.90;1.80;;;;;;;18.44;64.36;97100.00;10554768;28;20063;-31
2022/10/13 03:53:36;;;;;;;3.75;2.10;;;;;;;18.44;64.42;97100.00;10562476;28;20035;-30
2022/10/13 03:58:36;;;;;;;2.30;1.60;;;;;;;18.47;63.75;97089.00;10560894;28;20047;-31
2022/10/13 04:03:36;;;;;;;2.17;2.00;;;;;;;18.47;65.25;97089.88;10561996;28;20055;-30
2022/10/13 04:08:37;;;;;;;2.57;1.90;;;;;;;18.42;65.39;97075.47;10560460;28;20032;-31
2022/10/13 04:13:37;;;;;;;2.37;2.13;;;;;;;18.51;65.30;97088.19;10563645;28;20294;-30
2022/10/13 04:18:38;;;;;;;2.55;2.30;;;;;;;18.50;65.34;97096.66;10561620;28;20015;-31
2022/10/13 04:23:38;;;;;;;2.43;2.03;;;;;;;18.47;64.88;97100.00;10558332;28;20054;-34
2022/10/13 04:28:39;;;;;;;3.17;1.80;;;;;;;18.49;64.24;97110.16;10549664;28;20389;-31
2022/10/13 04:33:39;;;;;;;2.00;1.90;;;;;;;18.42;64.36;97100.81;10559642;28;20028;-31
2022/10/13 04:38:41;;;;;;;2.20;1.75;;;;;;;18.48;64.13;97101.69;10564894;28;20076;-31
2022/10/13 04:43:41;;;;;;;2.50;1.77;;;;;;;18.47;63.67;97087.34;10561558;28;20324;-32
2022/10/13 04:48:42;;;;;;;8.30;1.80;;;;;;;18.32;63.04;97083.88;10557411;28;20515;-32
2022/10/13 04:53:42;;;;;;;7.00;2.53;;;;;;;18.30;62.56;97085.50;10562563;28;20111;-31
2022/10/13 04:58:45;;;;;;;3.58;2.75;;;;;;;18.38;62.50;97068.66;10551836;28;20317;-31
2022/10/13 05:03:46;;;;;;;5.50;2.15;;;;;;;18.36;63.10;97066.16;10552379;28;20501;-31
2022/10/13 05:08:47;;;;;;;6.40;2.35;;;;;;;18.46;64.03;97067.03;10560089;28;20032;-31
2022/10/13 05:13:49;;;;;;;8.90;2.85;;;;;;;18.48;64.28;97065.34;10559890;28;20101;-31
2022/10/13 05:18:52;;;;;;;3.10;1.95;;;;;;;18.55;64.26;97074.69;10560335;28;20093;-31
2022/10/13 05:23:54;;;;;;;10.10;2.88;;;;;;;18.50;64.12;97074.66;10559492;28;20039;-30
2022/10/13 05:28:56;;;;;;;16.35;2.88;;;;;;;18.37;60.20;97072.03;10569423;28;20047;-31
2022/10/13 05:33:59;;;;;;;5.97;1.75;;;;;;;18.33;62.57;97075.41;10566581;28;20481;-31
2022/10/13 05:39:06;;;;;;;5.43;1.98;;;;;;;18.36;63.41;97062.75;10572091;28;20047;-31
2022/10/13 05:44:08;;;;;;;7.30;2.55;;;;;;;18.40;63.31;97059.41;10568083;28;20055;-31
2022/10/13 05:49:13;;;;;;;4.55;1.98;;;;;;;18.40;63.53;97072.09;10567818;28;20020;-31
2022/10/13 05:54:32;;;;;;;13.20;3.05;;;;;;;18.39;63.99;97072.91;10565981;28;20032;-32
2022/10/13 05:59:38;;;;;;;9.73;2.28;;;;;;;18.36;63.60;97067.81;10564871;28;20106;-31
2022/10/13 06:04:45;;;;;;;4.25;1.85;;;;;;;18.39;63.75;97077.97;10564744;28;20057;-31
2022/10/13 06:09:45;;;;;;;4.10;2.38;;;;;;;18.38;63.53;97068.66;10559866;28;20032;-30
2022/10/13 06:14:46;;;;;;;4.07;1.95;;;;;;;18.40;64.55;97067.84;10571571;28;20043;-30
2022/10/13 06:19:46;;;;;;;8.98;2.28;;;;;;;18.44;64.22;97061.09;10563238;28;20073;-30
2022/10/13 06:24:47;;;;;;;3.63;1.87;;;;;;;18.44;63.73;97061.09;10567271;28;20050;-30
2022/10/13 06:29:47;;;;;;;5.88;2.80;;;;;;;18.46;63.79;97056.88;10560762;28;20043;-30
2022/10/13 06:34:48;;;;;;;4.07;2.13;;;;;;;18.41;63.78;97048.44;10562463;28;20032;-31
2022/10/13 06:39:48;;;;;;;3.55;1.83;;;;;;;18.39;63.72;97050.09;10563136;28;20274;-31
2022/10/13 06:44:48;;;;;;;3.23;1.73;;;;;;;18.31;63.80;97047.53;10566137;28;20443;-31
2022/10/13 06:49:49;;;;;;;3.80;2.00;;;;;;;18.39;64.07;97055.16;10563647;28;20342;-30
2022/10/13 06:54:50;;;;;;;4.60;1.70;;;;;;;18.37;63.70;97061.91;10564934;28;20277;-30
2022/10/13 06:59:51;;;;;;;2.17;1.60;;;;;;;18.38;63.97;97064.47;10568151;28;20046;-30
2022/10/13 07:04:52;;;;;;;3.53;1.63;;;;;;;18.38;63.82;97058.53;10562476;28;20028;-30
2022/10/13 07:09:52;;;;;;;4.63;1.80;;;;;;;18.38;63.93;97068.66;10561384;28;20400;-31
2022/10/13 07:14:53;;;;;;;3.63;1.90;;;;;;;18.40;63.67;97072.09;10565329;28;20035;-33
2022/10/13 07:19:53;;;;;;;6.47;1.80;;;;;;;18.41;63.84;97059.41;10561439;28;20338;-31
2022/10/13 07:24:53;;;;;;;2.90;2.03;;;;;;;18.47;63.99;97043.38;10560665;28;20763;-31
2022/10/13 07:29:55;;;;;;;4.20;1.75;;;;;;;18.44;63.67;97039.16;10559301;28;20024;-30
2022/10/13 07:34:55;;;;;;;2.00;1.73;;;;;;;18.41;63.78;97038.28;10561572;28;20494;-30
2022/10/13 07:39:57;;;;;;;2.03;1.70;;;;;;;18.40;63.69;97045.03;10565258;28;20035;-30
2022/10/13 07:44:58;;;;;;;2.58;1.88;;;;;;;18.39;63.73;97045.88;10557014;28;20052;-30
2022/10/13 07:50:01;;;;;;;2.75;1.38;;;;;;;18.40;63.68;97052.63;10561409;28;20031;-32
2022/10/13 07:55:02;;;;;;;2.63;1.83;;;;;;;18.39;63.84;97039.94;10562610;28;20598;-31
2022/10/13 08:00:05;;;;;;;1.88;1.75;;;;;;;18.39;63.68;97040.81;10563086;28;20028;-30
2022/10/13 08:05:12;;;;;;;2.17;1.70;;;;;;;18.38;63.74;97043.31;10559016;28;20036;-30
2022/10/13 08:10:13;;;;;;;2.27;1.60;;;;;;;18.37;63.69;97047.56;10557938;28;20035;-31
2022/10/13 08:15:14;;;;;;;1.83;1.33;;;;;;;18.39;63.76;97037.41;10562339;28;20036;-30
2022/10/13 08:20:14;;;;;;;2.00;1.42;;;;;;;18.41;63.67;97035.75;10563092;28;20040;-32
2022/10/13 08:25:15;;;;;;;2.60;1.40;;;;;;;18.43;63.90;97042.50;10563774;28;20055;-30
2022/10/13 08:30:15;;;;;;;2.90;1.52;;;;;;;18.48;63.75;97045.06;10560535;28;20081;-31
2022/10/13 08:35:16;;;;;;;2.88;1.70;;;;;;;18.40;63.74;97018.84;10564479;28;20108;-30
2022/10/13 08:40:19;;;;;;;2.00;1.40;;;;;;;18.42;63.57;97032.38;10561173;28;20042;-31
2022/10/13 08:45:27;;;;;;;1.35;1.25;;;;;;;18.41;63.54;97021.38;10558928;28;20032;-30
2022/10/13 08:50:34;;;;;;;1.75;1.65;;;;;;;18.42;63.74;97014.63;10555685;28;20042;-31
2022/10/13 08:55:46;;;;;;;2.47;1.52;;;;;;;18.41;63.66;97023.06;10559714;28;20028;-29
2022/10/13 09:00:46;;;;;;;1.98;1.50;;;;;;;18.38;63.48;97023.03;10557805;28;20028;-31
2022/10/13 09:06:01;;;;;;;1.67;1.40;;;;;;;18.34;63.65;97008.66;10566661;28;20032;-31
2022/10/13 09:11:02;;;;;;;2.15;1.48;;;;;;;18.39;63.61;97018.00;10567018;28;20854;-31
2022/10/13 09:16:03;;;;;;;1.60;1.50;;;;;;;18.39;63.61;97020.53;10566241;28;20164;-30
2022/10/13 09:21:24;;;;;;;2.55;1.45;;;;;;;18.39;63.68;97019.66;10567477;28;20027;-31
2022/10/13 09:26:24;;;;;;;1.50;1.20;;;;;;;18.41;63.79;97012.94;10571073;28;20027;-30
2022/10/13 09:31:27;;;;;;;2.30;1.40;;;;;;;18.46;63.75;97023.94;10567360;28;20053;-30
2022/10/13 09:36:28;;;;;;;2.20;1.80;;;;;;;18.48;63.77;97030.72;10563610;28;20358;-31
2022/10/13 09:41:29;;;;;;;2.45;1.30;;;;;;;18.48;63.69;97028.16;10568395;28;20073;-31
2022/10/13 09:46:33;;;;;;;3.53;1.63;;;;;;;18.39;63.60;97018.00;10573037;28;20042;-31
2022/10/13 09:51:43;;;;;;;1.83;1.50;;;;;;;18.42;63.43;97019.69;10568236;28;20404;-31
2022/10/13 09:57:10;;;;;;;2.95;1.33;;;;;;;18.41;63.48;97015.47;10564823;28;20038;-30
2022/10/13 10:02:36;;;;;;;2.35;1.98;;;;;;;18.41;63.59;97020.53;10569640;28;20032;-30
2022/10/13 10:07:36;;;;;;;1.77;1.63;;;;;;;18.37;63.56;97007.00;10563922;28;20032;-30
2022/10/13 10:12:40;;;;;;;2.25;1.42;;;;;;;18.39;63.86;97012.91;10566266;28;20478;-30
2022/10/13 10:17:54;;;;;;;2.10;1.60;;;;;;;18.40;63.68;97021.38;10567335;28;20027;-30
2022/10/13 10:23:04;;;;;;;1.50;1.38;;;;;;;18.39;63.54;97019.66;10562479;28;20031;-30
2022/10/13 10:28:21;;;;;;;1.65;1.50;;;;;;;18.39;63.65;97017.13;10567346;28;20110;-30
2022/10/13 10:33:36;;;;;;;1.55;1.20;;;;;;;18.44;63.92;97018.00;10564648;28;20390;-31
2022/10/13 10:39:00;;;;;;;4.30;2.10;;;;;;;18.43;63.89;97026.47;10559748;27;20119;-30
2022/10/13 10:44:21;;;;;;;9.25;2.17;;;;;;;18.44;63.72;97021.41;10560227;28;20048;-32
2022/10/13 10:49:28;;;;;;;9.18;2.30;;;;;;;18.44;63.17;97023.94;10563542;28;20059;-31
2022/10/13 10:54:42;;;;;;;18.63;3.60;;;;;;;18.41;63.51;97028.16;10564990;28;20486;-30
2022/10/13 11:00:25;;;;;;;10.20;2.40;;;;;;;18.37;63.62;97007.00;10561915;28;20047;-31
2022/10/13 11:05:50;;;;;;;13.23;3.45;;;;;;;18.38;64.20;97012.91;10437762;28;20055;-31
2022/10/13 11:11:19;;;;;;;12.30;3.08;;;;;;;18.40;63.79;97001.09;10558983;28;20020;-31
2022/10/13 11:16:32;;;;;;;18.17;4.65;;;;;;;18.41;64.93;96978.28;10565132;28;20030;-30
2022/10/13 11:21:51;;;;;;;11.38;3.30;;;;;;;18.41;64.21;96975.75;10566515;28;20078;-30
2022/10/13 11:26:52;;;;;;;14.77;3.20;;;;;;;18.48;64.58;96985.06;10557455;28;20028;-31
2022/10/13 11:31:53;;;;;;;14.43;3.43;;;;;;;18.49;63.35;96966.47;10557735;28;20081;-30
2022/10/13 11:37:00;;;;;;;22.75;4.22;;;;;;;18.55;65.38;96975.78;10561030;28;20274;-30
2022/10/13 11:42:42;;;;;;;15.35;4.38;;;;;;;18.57;65.24;96967.34;10562409;28;20550;-30
2022/10/13 11:47:54;;;;;;;20.40;5.57;;;;;;;18.57;64.45;96953.84;10510400;28;20036;-30
2022/10/13 11:53:00;;;;;;;11.13;3.75;;;;;;;18.54;64.34;96943.69;10563385;28;20083;-31
2022/10/13 11:58:29;;;;;;;8.20;2.90;;;;;;;18.52;64.72;96941.16;10557341;28;20046;-30
2022/10/13 12:03:35;;;;;;;13.63;3.55;;;;;;;18.51;64.53;96929.28;10559316;28;20307;-31
2022/10/13 12:08:36;;;;;;;;;;;;;;;18.52;64.44;96920.88;10559737;28;20032;-31
2022/10/13 12:13:37;;;;;;;13.05;3.53;;;;;;;18.50;64.44;96909.84;10555290;28;20086;-31
2022/10/13 12:18:39;;;;;;;13.10;4.20;;;;;;;18.49;64.66;96914.94;10560450;28;20549;-32
2022/10/13 12:23:39;;;;;;;10.27;3.08;;;;;;;18.49;64.28;96897.19;10565026;28;20030;-30
2022/10/13 12:28:56;;;;;;;11.02;3.15;;;;;;;18.49;64.17;96898.03;10558517;28;20494;-30
2022/10/13 12:34:00;;;;;;;;;;;;;;;18.52;64.41;96894.66;10557562;28;20051;-31
2022/10/13 12:39:06;;;;;;;11.43;2.78;;;;;;;18.51;63.99;96892.97;10572676;28;19943;-31
2022/10/13 12:44:16;;;;;;;8.43;3.80;;;;;;;18.54;65.08;96887.91;10570266;28;20078;-32
2022/10/13 12:49:33;;;;;;;9.43;4.28;;;;;;;18.55;65.03;96889.59;10568414;28;20032;-31
2022/10/13 12:54:37;;;;;;;6.18;3.55;;;;;;;18.49;64.34;96887.06;10569132;28;20032;-30
2022/10/13 12:59:41;;;;;;;7.43;3.47;;;;;;;18.54;63.54;96898.03;10567828;28;20031;-31
2022/10/13 13:04:42;;;;;;;6.43;3.13;;;;;;;18.54;63.57;96892.97;10562694;28;20493;-31
2022/10/13 13:10:02;;;;;;;7.22;3.72;;;;;;;18.54;63.35;96905.66;10564894;28;20024;-32
2022/10/13 13:15:31;;;;;;;8.15;3.25;;;;;;;18.54;63.11;96898.03;10569523;28;20400;-31
2022/10/13 13:20:33;;;;;;;8.48;3.50;;;;;;;18.53;63.29;96891.28;10567397;28;20067;-31
2022/10/13 13:25:34;;;;;;;9.00;2.75;;;;;;;18.53;63.33;96883.66;10571162;28;20036;-30
2022/10/13 13:30:34;;;;;;;6.90;3.40;;;;;;;18.52;63.19;96889.59;10561446;28;20039;-31
2022/10/13 13:35:36;;;;;;;7.40;3.25;;;;;;;18.50;63.03;96888.75;10564913;28;20109;-30
2022/10/13 13:40:36;;;;;;;6.88;2.92;;;;;;;18.50;63.30;96883.69;10569054;28;20032;-31
2022/10/13 13:45:37;;;;;;;8.30;3.53;;;;;;;18.51;63.32;96877.75;10561823;28;20409;-31
2022/10/13 13:50:40;;;;;;;9.73;3.72;;;;;;;18.55;63.32;96874.38;10563549;28;20285;-30
2022/10/13 13:55:43;;;;;;;10.43;3.60;;;;;;;18.54;63.53;96867.59;10565306;28;20023;-30
2022/10/13 14:00:44;;;;;;;11.98;3.50;;;;;;;18.52;63.55;96864.22;10562468;28;20375;-31
2022/10/13 14:05:45;;;;;;;5.93;2.90;;;;;;;18.47;63.61;96863.38;10565083;28;20032;-29
2022/10/13 14:10:47;;;;;;;6.82;3.00;;;;;;;18.48;63.60;96868.44;10563751;28;20282;-30
2022/10/13 14:15:58;;;;;;;3.92;2.65;;;;;;;18.48;63.48;96865.06;10563758;28;20115;-30
2022/10/13 14:20:58;;;;;;;6.38;2.97;;;;;;;18.41;63.71;96853.22;10564650;28;20026;-30
2022/10/13 14:26:04;;;;;;;7.60;3.47;;;;;;;18.44;63.74;96865.91;10570319;28;20512;-31
2022/10/13 14:31:05;;;;;;;7.43;4.00;;;;;;;18.47;63.96;96866.75;10567572;28;20050;-31
2022/10/13 14:36:09;;;;;;;9.07;4.25;;;;;;;18.52;63.75;96885.38;10561827;28;20124;-31
2022/10/13 14:41:09;;;;;;;12.85;4.60;;;;;;;18.49;63.85;96876.91;10568261;28;20122;-30
2022/10/13 14:46:10;;;;;;;14.00;4.57;;;;;;;18.47;63.84;96879.44;10562419;28;20028;-31
2022/10/13 14:51:11;;;;;;;9.15;4.10;;;;;;;18.51;63.53;96858.31;10558524;28;20034;-30
2022/10/13 14:56:21;;;;;;;8.38;4.28;;;;;;;18.58;63.71;96864.25;10561552;28;20370;-31
2022/10/13 15:01:29;;;;;;;15.18;4.25;;;;;;;18.50;64.11;96860.84;10565348;28;20074;-31
2022/10/13 15:06:30;;;;;;;13.68;4.45;;;;;;;18.47;63.76;96860.81;10561311;28;20043;-32
2022/10/13 15:11:31;;;;;;;10.57;4.15;;;;;;;18.38;64.03;96845.59;10561090;28;20031;-30
2022/10/13 15:16:32;;;;;;;10.40;4.22;;;;;;;18.41;64.20;96856.59;10562624;28;20032;-30
2022/10/13 15:21:32;;;;;;;12.40;4.70;;;;;;;18.40;64.34;96859.16;10561512;28;20025;-30
2022/10/13 15:26:35;;;;;;;9.10;4.28;;;;;;;18.38;64.25;96855.75;10566939;28;20401;-31
2022/10/13 15:31:36;;;;;;;10.77;3.92;;;;;;;18.37;64.61;96859.97;10552366;27;20833;-31
2022/10/13 15:36:36;;;;;;;10.77;4.43;;;;;;;18.35;64.70;96855.75;10557803;28;20026;-31
2022/10/13 15:41:36;;;;;;;9.73;4.77;;;;;;;18.31;64.94;96852.34;10567160;28;20802;-31
2022/10/13 15:46:37;;;;;;;10.27;4.70;;;;;;;18.26;65.86;96837.94;10565914;28;20039;-30
2022/10/13 15:51:38;;;;;;;12.23;4.35;;;;;;;18.23;66.00;96841.31;10567151;28;20031;-32
2022/10/13 15:56:38;;;;;;;7.63;3.78;;;;;;;18.33;65.88;96847.31;10565044;28;20020;-31
2022/10/13 16:01:39;;;;;;;7.80;4.13;;;;;;;18.38;65.75;96846.47;10553336;27;20031;-30
2022/10/13 16:06:39;;;;;;;10.60;4.53;;;;;;;18.29;66.02;96848.97;10546293;28;20702;-30
2022/10/13 16:11:40;;;;;;;9.50;4.50;;;;;;;18.18;66.77;96832.84;10551667;28;20472;-32
2022/10/13 16:16:40;;;;;;;8.93;3.60;;;;;;;18.30;66.09;96849.81;10560465;28;20032;-31
2022/10/13 16:21:41;;;;;;;7.67;4.37;;;;;;;18.38;65.22;96851.53;10562662;28;20461;-31
2022/10/13 16:26:41;;;;;;;5.90;3.13;;;;;;;18.41;64.67;96854.06;10541877;28;20694;-30
2022/10/13 16:31:42;;;;;;;5.57;3.10;;;;;;;18.43;64.43;96854.06;10554057;28;20039;-31
2022/10/13 16:36:42;;;;;;;6.53;3.85;;;;;;;18.43;64.09;96852.38;10553672;28;20782;-30
2022/10/13 16:41:43;;;;;;;7.23;3.43;;;;;;;18.45;64.06;96852.38;10550807;28;20028;-31
2022/10/13 16:46:44;;;;;;;11.10;3.72;;;;;;;18.42;65.03;96857.47;10557607;28;20300;-30
2022/10/13 16:51:44;;;;;;;6.72;3.65;;;;;;;18.26;66.00;96850.63;10552023;28;20030;-31
2022/10/13 16:56:45;;;;;;;6.90;3.27;;;;;;;18.35;65.46;96866.72;10554245;28;20036;-30
2022/10/13 17:01:47;;;;;;;9.88;4.43;;;;;;;18.46;66.09;96866.75;10561008;28;20038;-30
2022/10/13 17:06:47;;;;;;;7.40;3.53;;;;;;;18.51;65.60;96877.75;10550670;28;20025;-31
2022/10/13 17:11:47;;;;;;;7.00;3.73;;;;;;;18.50;64.97;96873.53;10564277;28;20389;-31
2022/10/13 17:16:48;;;;;;;9.00;3.80;;;;;;;18.47;64.41;96876.03;10566760;28;20511;-31
2022/10/13 17:21:48;;;;;;;7.57;3.70;;;;;;;18.47;64.39;96881.97;10561894;28;20331;-30
2022/10/13 17:26:49;;;;;;;5.73;2.93;;;;;;;18.45;64.10;96876.06;10571176;28;20029;-31
2022/10/13 17:31:49;;;;;;;7.85;3.92;;;;;;;18.47;63.71;96876.03;10559057;28;20723;-31
2022/10/13 17:36:52;;;;;;;8.23;3.40;;;;;;;18.47;63.63;96878.56;10567407;28;20474;-32
2022/10/13 17:41:52;;;;;;;3.80;2.43;;;;;;;18.46;63.68;96880.28;10567927;28;20036;-32
2022/10/13 17:46:53;;;;;;;6.27;3.27;;;;;;;18.47;63.81;96883.66;10561275;28;20028;-30
2022/10/13 17:51:53;;;;;;;4.47;2.90;;;;;;;18.46;63.58;96884.50;10566279;28;20032;-31
2022/10/13 17:56:55;;;;;;;5.40;3.50;;;;;;;18.46;63.64;96884.50;10565989;28;20097;-30
2022/10/13 18:01:56;;;;;;;9.35;4.45;;;;;;;18.50;64.99;96887.03;10570828;28;20031;-31
2022/10/13 18:06:56;;;;;;;5.97;2.90;;;;;;;18.53;65.07;96892.13;10559655;28;20035;-30
2022/10/13 18:11:57;;;;;;;4.38;3.13;;;;;;;18.54;65.84;96885.38;10564094;28;20059;-30
2022/10/13 18:16:58;;;;;;;6.03;3.20;;;;;;;18.49;64.72;96882.81;10554609;28;20032;-31
2022/10/13 18:21:58;;;;;;;7.30;3.00;;;;;;;18.48;64.28;96882.81;10557059;28;20035;-31
2022/10/13 18:26:58;;;;;;;8.80;3.33;;;;;;;18.46;64.29;96885.34;10560886;28;20453;-31
2022/10/13 18:32:02;;;;;;;7.60;3.00;;;;;;;18.48;64.22;96875.19;10554216;28;20392;-30
2022/10/13 18:37:04;;;;;;;4.35;2.78;;;;;;;18.44;64.47;96881.13;10558340;28;20384;-31
2022/10/13 18:42:04;;;;;;;7.78;3.22;;;;;;;18.43;64.99;96877.72;10551451;28;20030;-32
2022/10/13 18:47:07;;;;;;;7.40;3.63;;;;;;;18.41;65.01;96881.13;10559212;28;20088;-30
2022/10/13 18:52:08;;;;;;;8.68;3.75;;;;;;;18.39;65.03;96880.25;10553259;27;20050;-31
2022/10/13 18:57:12;;;;;;;6.88;3.10;;;;;;;18.40;65.38;96884.50;10557241;28;20106;-30
2022/10/13 19:02:13;;;;;;;10.17;3.13;;;;;;;18.41;65.56;96886.19;10555322;28;20036;-31
2022/10/13 19:07:14;;;;;;;7.90;3.42;;;;;;;18.50;65.82;96891.28;10557672;28;20040;-30
2022/10/13 19:12:14;;;;;;;8.33;4.40;;;;;;;18.49;65.68;96884.53;10556712;28;20032;-31
2022/10/13 19:17:14;;;;;;;7.50;3.40;;;;;;;18.46;64.97;96881.97;10558715;28;20270;-30
2022/10/13 19:22:15;;;;;;;6.10;2.97;;;;;;;18.46;64.52;96884.50;10551309;28;20058;-30
2022/10/13 19:27:15;;;;;;;8.82;3.40;;;;;;;18.40;64.85;96874.34;10562245;28;20377;-31
2022/10/13 19:32:16;;;;;;;3.65;3.05;;;;;;;18.41;65.14;96886.19;10557070;28;20031;-31
2022/10/13 19:37:16;;;;;;;10.43;3.00;;;;;;;18.41;65.18;96881.13;10555586;28;20062;-31
2022/10/13 19:42:18;;;;;;;5.38;2.88;;;;;;;18.39;64.93;96893.78;10559846;28;20687;-31
2022/10/13 19:47:18;;;;;;;5.07;3.17;;;;;;;18.40;64.91;96885.31;10556300;28;20038;-31
2022/10/13 19:52:19;;;;;;;5.70;2.93;;;;;;;18.40;65.01;96895.47;10556360;28;20031;-31
2022/10/13 19:57:19;;;;;;;5.03;2.60;;;;;;;18.40;64.78;96902.25;10552694;28;20364;-30
2022/10/13 20:02:19;;;;;;;4.90;2.90;;;;;;;18.39;65.10;96900.53;10563978;28;20049;-32
2022/10/13 20:07:20;;;;;;;8.53;3.63;;;;;;;18.49;65.78;96904.81;10559286;28;20039;-31
2022/10/13 20:12:20;;;;;;;8.23;3.47;;;;;;;18.50;65.53;96912.41;10558089;28;20039;-32
2022/10/13 20:17:20;;;;;;;6.40;3.10;;;;;;;18.49;65.27;96918.31;10550687;28;20024;-30
2022/10/13 20:22:21;;;;;;;10.53;2.70;;;;;;;18.42;65.17;96910.69;10555788;28;20038;-31
2022/10/13 20:27:21;;;;;;;6.23;2.90;;;;;;;18.45;65.23;96918.28;10564783;28;20032;-31
2022/10/13 20:32:22;;;;;;;5.88;3.15;;;;;;;18.45;64.99;96918.28;10552494;28;20408;-31
2022/10/13 20:37:22;;;;;;;4.10;2.93;;;;;;;18.43;65.15;96910.69;10558649;28;20473;-31
2022/10/13 20:42:22;;;;;;;3.43;2.77;;;;;;;18.43;64.98;96920.00;10550322;28;20400;-31
2022/10/13 20:47:23;;;;;;;5.57;2.63;;;;;;;18.43;64.75;96923.34;10561646;28;20327;-32
2022/10/13 20:52:23;;;;;;;5.43;2.90;;;;;;;18.42;64.72;96913.22;10559660;28;20659;-31
2022/10/13 20:57:24;;;;;;;6.70;3.53;;;;;;;18.40;64.88;96920.81;10565906;28;20089;-31
2022/10/13 21:02:27;;;;;;;7.22;2.97;;;;;;;18.41;64.88;96921.69;10568615;28;20280;-31
2022/10/13 21:07:27;;;;;;;5.77;3.00;;;;;;;18.33;65.11;96892.91;10566756;28;20032;-29
2022/10/13 21:12:27;;;;;;;5.00;2.60;;;;;;;18.45;66.13;96908.16;10569735;28;20282;-30
2022/10/13 21:17:30;;;;;;;5.30;2.80;;;;;;;18.48;65.67;96914.09;10570595;28;20292;-31
2022/10/13 21:22:30;;;;;;;6.50;3.00;;;;;;;18.44;65.14;96914.06;10571146;28;20028;-32
2022/10/13 21:27:33;;;;;;;3.58;2.17;;;;;;;18.40;64.83;96899.72;10567671;28;20393;-32
2022/10/13 21:32:33;;;;;;;5.93;3.17;;;;;;;18.28;64.90;96890.34;10572019;28;20035;-30
2022/10/13 21:37:37;;;;;;;4.07;2.80;;;;;;;18.39;64.85;96906.44;10568536;28;20102;-30
2022/10/13 21:42:37;;;;;;;3.95;2.05;;;;;;;18.39;64.82;96898.84;10570924;28;20110;-32
2022/10/13 21:47:38;;;;;;;5.23;2.80;;;;;;;18.40;64.93;96892.09;10575947;28;20123;-30
2022/10/13 21:52:38;;;;;;;3.13;2.60;;;;;;;18.37;65.06;96890.41;10568425;28;20405;-30
2022/10/13 21:57:38;;;;;;;3.17;2.20;;;;;;;18.38;64.94;96886.16;10567252;28;20028;-31
2022/10/13 22:02:39;;;;;;;4.13;2.10;;;;;;;18.37;64.92;96887.00;10573724;28;20111;-30
2022/10/13 22:07:41;;;;;;;3.35;2.28;;;;;;;18.34;64.98;96881.94;10566579;28;20036;-30
2022/10/13 22:12:41;;;;;;;2.90;2.10;;;;;;;18.38;64.48;96891.22;10566696;28;20042;-32
2022/10/13 22:17:41;;;;;;;5.10;3.13;;;;;;;18.43;66.38;96895.47;10563101;28;20028;-31
2022/10/13 22:22:42;;;;;;;3.57;2.53;;;;;;;18.46;65.33;96915.78;10559602;28;20286;-30
2022/10/13 22:27:42;;;;;;;7.20;2.80;;;;;;;18.43;64.98;96910.69;10567866;28;20465;-31
2022/10/13 22:32:43;;;;;;;2.97;2.10;;;;;;;18.44;64.74;96914.06;10558996;28;20545;-30
2022/10/13 22:37:43;;;;;;;2.57;2.37;;;;;;;18.41;64.50;96921.69;10563775;28;20485;-32
2022/10/13 22:42:43;;;;;;;3.27;2.20;;;;;;;18.39;64.72;96913.19;10563216;28;20625;-30
2022/10/13 22:47:47;;;;;;;3.73;2.50;;;;;;;18.36;64.88;96903.06;10568925;28;20551;-31
2022/10/13 22:52:48;;;;;;;4.43;2.13;;;;;;;18.35;64.96;96912.34;10562229;28;20039;-31
2022/10/13 22:57:49;;;;;;;3.72;2.60;;;;;;;18.31;64.81;96889.50;10560856;28;20034;-31
2022/10/13 23:02:49;;;;;;;3.03;2.73;;;;;;;18.31;65.09;96890.38;10566391;28;20034;-31
2022/10/13 23:07:49;;;;;;;2.73;2.20;;;;;;;18.38;64.87;96891.22;10568218;28;20024;-31
2022/10/13 23:12:50;;;;;;;4.30;2.13;;;;;;;18.38;64.89;96881.09;10568380;28;20524;-30
2022/10/13 23:17:50;;;;;;;5.07;2.10;;;;;;;18.38;64.66;96876.03;10563605;28;20042;-31
2022/10/13 23:22:50;;;;;;;5.57;2.70;;;;;;;18.43;65.59;96880.25;10561296;28;20035;-32
2022/10/13 23:27:51;;;;;;;3.03;2.40;;;;;;;18.47;65.54;96873.50;10566458;28;20028;-30
2022/10/13 23:32:51;;;;;;;2.70;2.50;;;;;;;18.38;64.82;96869.28;10562258;28;20031;-32